Time;durP1;ratioP1;P1;durP2;ratioP2;P2;SDS_P1;SDS_P2;PMS_P1;PMS_P2;Temp;Humidity;BMP_temperature;BMP_pressure;BME280_temperature;BME280_humidity;BME280_pressure;Samples;Min_cycle;Max_cycle;Signal;HPM_P1;HPM_P2
2022/11/06 00:01:22;;;;;;;12.00;6.03;;;;;;;8.72;96.42;101398.69;5051691;28;20025;-77
2022/11/06 00:03:47;;;;;;;12.35;6.30;;;;;;;8.72;96.46;101402.16;5050598;28;20480;-75
2022/11/06 00:09:03;;;;;;;13.68;6.00;;;;;;;8.67;96.63;101406.81;5049756;28;20098;-75
2022/11/06 00:11:29;;;;;;;15.50;5.85;;;;;;;8.63;96.68;101399.22;5048495;28;20029;-75
2022/11/06 00:13:58;;;;;;;12.23;5.68;;;;;;;8.61;96.61;101396.69;5027283;28;20210;-75
2022/11/06 00:16:23;;;;;;;12.63;5.72;;;;;;;8.57;97.03;101400.41;5029735;28;20029;-75
2022/11/06 00:18:49;;;;;;;13.98;5.22;;;;;;;8.56;96.99;101403.97;5019162;28;20032;-75
2022/11/06 00:21:19;;;;;;;17.45;6.15;;;;;;;8.53;97.28;101398.91;5036403;28;20013;-75
2022/11/06 00:23:45;;;;;;;10.65;5.57;;;;;;;8.52;97.09;101391.13;5029541;28;20108;-75
2022/11/06 00:26:15;;;;;;;14.07;5.13;;;;;;;8.50;97.23;101392.97;5045331;28;20079;-76
2022/11/06 00:28:41;;;;;;;13.32;5.55;;;;;;;8.47;97.47;101388.75;5049344;28;20051;-76
2022/11/06 00:31:09;;;;;;;11.43;5.32;;;;;;;8.44;97.40;101384.53;5023062;28;20034;-75
2022/11/06 00:33:35;;;;;;;13.07;5.72;;;;;;;8.43;97.66;101382.84;5030535;28;20036;-75
2022/11/06 00:36:05;;;;;;;13.85;5.45;;;;;;;8.40;97.68;101380.38;5029391;28;20037;-75
2022/11/06 00:38:31;;;;;;;13.18;5.53;;;;;;;8.37;97.45;101377.06;5029784;28;20375;-75
2022/11/06 00:40:56;;;;;;;12.35;5.45;;;;;;;8.37;97.74;101366.59;5048971;28;20032;-76
2022/11/06 00:43:22;;;;;;;9.27;4.75;;;;;;;8.34;97.75;101356.28;5049059;28;20035;-75
2022/11/06 00:45:47;;;;;;;10.88;5.13;;;;;;;8.33;98.24;101368.53;5043665;28;20025;-75
2022/11/06 00:48:12;;;;;;;13.45;5.63;;;;;;;8.33;98.08;101365.91;5024434;28;20023;-76
2022/11/06 00:50:41;;;;;;;11.95;5.75;;;;;;;8.33;98.42;101365.03;5049559;28;20028;-76
2022/11/06 00:53:06;;;;;;;12.25;5.00;;;;;;;8.35;98.04;101363.22;5049643;28;20074;-76
2022/11/06 00:55:31;;;;;;;12.10;5.18;;;;;;;8.35;98.08;101360.59;5046983;28;20025;-76
2022/11/06 00:57:57;;;;;;;10.45;4.72;;;;;;;8.35;97.86;101373.69;5030131;28;20049;-76
2022/11/06 01:00:22;;;;;;;10.18;4.25;;;;;;;8.32;97.96;101373.84;5061338;28;20025;-76
2022/11/06 01:02:47;;;;;;;12.27;4.68;;;;;;;8.30;98.21;101379.16;5043053;28;20090;-76
2022/11/06 01:05:13;;;;;;;10.13;4.47;;;;;;;8.30;98.15;101380.94;5029784;28;20512;-76
2022/11/06 01:07:39;;;;;;;12.98;5.28;;;;;;;8.29;98.13;101368.75;5028955;28;20031;-76
2022/11/06 01:10:06;;;;;;;11.45;4.35;;;;;;;8.27;98.26;101370.63;5043484;28;20063;-76
2022/11/06 01:12:32;;;;;;;13.07;4.65;;;;;;;8.26;98.44;101374.19;5049337;28;20028;-76
2022/11/06 01:14:58;;;;;;;10.73;4.70;;;;;;;8.24;98.52;101366.41;5047944;28;20450;-76
2022/11/06 01:17:23;;;;;;;15.40;4.95;;;;;;;8.23;98.51;101366.50;5050113;28;20075;-76
2022/11/06 01:19:48;;;;;;;13.90;4.70;;;;;;;8.23;98.78;101363.88;5033151;28;20033;-76
2022/11/06 01:22:14;;;;;;;13.85;5.00;;;;;;;8.24;98.95;101357.69;5043716;28;20027;-76
2022/11/06 01:24:39;;;;;;;13.88;5.03;;;;;;;8.23;98.72;101358.63;5049549;28;20542;-76
2022/11/06 01:27:04;;;;;;;11.32;4.55;;;;;;;8.23;98.70;101353.38;5048771;28;20477;-76
2022/11/06 01:29:30;;;;;;;13.93;4.70;;;;;;;8.25;99.10;101354.13;5048115;28;20021;-75
2022/11/06 01:31:58;;;;;;;11.65;4.68;;;;;;;8.29;99.05;101350.41;5048600;28;20358;-76
2022/11/06 01:34:24;;;;;;;9.88;4.00;;;;;;;8.29;98.98;101339.94;5046465;28;20033;-76
2022/11/06 01:36:50;;;;;;;9.93;4.35;;;;;;;8.31;98.68;101335.44;5021981;28;20370;-75
2022/11/06 01:39:15;;;;;;;8.73;3.80;;;;;;;8.34;98.80;101335.28;5035471;28;20039;-76
2022/11/06 01:41:45;;;;;;;9.65;3.90;;;;;;;8.37;98.44;101330.72;5045955;28;20459;-75
2022/11/06 01:44:31;;;;;;;12.25;3.90;;;;;;;8.40;98.54;101327.06;5048267;28;20025;-75
2022/11/06 01:46:57;;;;;;;9.95;3.90;;;;;;;8.42;98.37;101328.72;5047297;28;20021;-76
2022/11/06 01:49:22;;;;;;;12.98;3.70;;;;;;;8.46;98.27;101334.63;5047876;28;20037;-75
2022/11/06 01:51:52;;;;;;;15.45;4.28;;;;;;;8.47;97.93;101336.31;5048371;28;20492;-75
2022/11/06 01:54:20;;;;;;;13.65;4.28;;;;;;;8.47;98.21;101326.66;5029448;28;20037;-76
2022/11/06 01:56:48;;;;;;;11.90;3.95;;;;;;;8.51;98.22;101332.56;5027488;28;20037;-76
2022/11/06 01:59:16;;;;;;;8.93;3.65;;;;;;;8.52;97.97;101322.94;5033916;28;20029;-76
2022/11/06 02:01:41;;;;;;;16.23;4.50;;;;;;;8.54;98.42;101321.91;5047757;28;20116;-76
2022/11/06 02:04:30;;;;;;;11.80;3.65;;;;;;;8.55;97.64;101318.34;5031217;28;20104;-76
2022/11/06 02:06:59;;;;;;;12.05;4.30;;;;;;;8.59;97.60;101325.09;5047726;28;20404;-76
2022/11/06 02:09:25;;;;;;;13.45;4.00;;;;;;;8.61;97.59;101318.00;5048332;28;20112;-76
2022/11/06 02:11:59;;;;;;;12.13;3.67;;;;;;;8.63;97.76;101321.38;5032289;28;20113;-76
2022/11/06 02:14:57;;;;;;;11.40;3.80;;;;;;;8.67;97.51;101317.63;5029549;28;20069;-76
2022/11/06 02:17:46;;;;;;;10.18;3.72;;;;;;;8.68;97.34;101316.69;5031703;28;20029;-76
2022/11/06 02:20:22;;;;;;;10.07;4.20;;;;;;;8.70;96.93;101314.81;5042299;28;20393;-76
2022/11/06 02:22:58;;;;;;;8.93;3.63;;;;;;;8.71;96.98;101308.63;5030917;28;20035;-76
2022/11/06 02:25:45;;;;;;;9.85;3.22;;;;;;;8.71;96.95;101308.63;5052180;28;20060;-76
2022/11/06 02:28:36;;;;;;;14.95;3.90;;;;;;;8.70;96.73;101312.19;5034085;28;20060;-76
2022/11/06 02:31:06;;;;;;;14.23;3.85;;;;;;;8.69;96.72;101304.41;5050264;28;20524;-76
2022/11/06 02:33:37;;;;;;;12.13;3.80;;;;;;;8.64;97.32;101296.81;5052528;28;20025;-75
2022/11/06 02:36:15;;;;;;;11.10;3.20;;;;;;;8.65;97.16;101297.66;5051852;28;20068;-76
2022/11/06 02:38:45;;;;;;;10.63;3.25;;;;;;;8.62;97.10;101298.69;5050809;28;20025;-75
2022/11/06 02:41:18;;;;;;;10.10;3.40;;;;;;;8.61;97.17;101288.28;5012348;28;20018;-76
2022/11/06 02:43:49;;;;;;;11.52;3.75;;;;;;;8.60;97.34;101283.97;5012220;28;20065;-75
2022/11/06 02:46:22;;;;;;;11.18;3.88;;;;;;;8.60;97.45;101290.06;5012627;28;20344;-75
2022/11/06 02:48:57;;;;;;;12.00;3.70;;;;;;;8.61;97.37;101288.28;5012187;28;20117;-76
2022/11/06 02:51:29;;;;;;;11.45;4.00;;;;;;;8.59;97.34;101288.38;5050400;28;20083;-75
2022/11/06 02:53:59;;;;;;;10.13;4.00;;;;;;;8.61;97.51;101291.75;5050813;28;20074;-76
2022/11/06 02:56:30;;;;;;;11.55;3.67;;;;;;;8.59;98.06;101293.63;5041410;28;20032;-75
2022/11/06 02:59:03;;;;;;;11.57;3.75;;;;;;;8.62;97.89;101282.94;5032574;28;20058;-76
2022/11/06 03:01:34;;;;;;;12.48;3.67;;;;;;;8.62;97.91;101292.59;5031688;28;20025;-76
2022/11/06 03:04:04;;;;;;;11.93;3.55;;;;;;;8.60;97.82;101295.31;5031390;28;20083;-76
2022/11/06 03:06:39;;;;;;;9.13;3.45;;;;;;;8.61;97.70;101296.16;5031487;28;20072;-76
2022/11/06 03:09:28;;;;;;;10.45;3.38;;;;;;;8.64;97.89;101302.06;5034017;28;20037;-76
2022/11/06 03:12:24;;;;;;;14.27;3.90;;;;;;;8.64;97.83;101317.81;5050953;28;20021;-76
2022/11/06 03:15:24;;;;;;;11.25;3.45;;;;;;;8.69;97.86;101307.03;5065315;28;20500;-76
2022/11/06 03:17:59;;;;;;;13.02;3.78;;;;;;;8.68;97.96;101290.47;5035679;28;20073;-76
2022/11/06 03:20:35;;;;;;;12.30;3.72;;;;;;;8.70;97.89;101293.84;5038269;28;20040;-76
2022/11/06 03:23:06;;;;;;;10.90;3.78;;;;;;;8.69;97.81;101292.16;5061906;28;20040;-76
2022/11/06 03:25:42;;;;;;;13.05;4.00;;;;;;;8.70;97.83;101277.25;5032173;28;20099;-76
2022/11/06 03:28:30;;;;;;;11.35;3.45;;;;;;;8.67;97.77;101269.56;5039202;28;20481;-76
2022/11/06 03:31:01;;;;;;;13.10;3.72;;;;;;;8.64;98.03;101269.75;5050214;28;20500;-76
2022/11/06 03:33:51;;;;;;;9.10;3.70;;;;;;;8.67;98.17;101266.94;5047811;28;20033;-76
2022/11/06 03:36:40;;;;;;;9.80;3.42;;;;;;;8.61;98.22;101257.66;5030468;28;20552;-76
2022/11/06 03:39:12;;;;;;;10.32;3.47;;;;;;;8.59;98.24;101256.06;5033207;28;20638;-75
2022/11/06 03:41:54;;;;;;;11.45;3.30;;;;;;;8.60;97.98;101245.47;5050189;28;20025;-75
2022/11/06 03:44:23;;;;;;;9.18;3.47;;;;;;;8.59;98.38;101253.44;5050829;28;20059;-75
2022/11/06 03:46:56;;;;;;;8.35;3.42;;;;;;;8.62;98.37;101246.22;5050541;28;20071;-76
2022/11/06 03:49:25;;;;;;;;;;;;;;;8.69;97.96;101241.47;5050182;28;20056;-75
2022/11/06 03:52:02;;;;;;;9.48;3.22;;;;;;;8.66;98.43;101237.25;5032031;28;20620;-77
2022/11/06 03:54:40;;;;;;;13.00;4.28;;;;;;;8.69;98.83;101238.84;5030406;28;20021;-75
2022/11/06 03:57:14;;;;;;;14.02;3.42;;;;;;;8.70;98.33;101223.00;5030394;28;20116;-75
2022/11/06 03:59:45;;;;;;;10.98;3.08;;;;;;;8.72;98.07;101221.13;5053246;28;20123;-76
2022/11/06 04:02:13;;;;;;;10.15;3.22;;;;;;;8.72;97.96;101221.13;5048455;28;20013;-76
2022/11/06 04:04:50;;;;;;;9.27;2.95;;;;;;;8.72;98.35;101223.75;5049360;28;20031;-76
2022/11/06 04:07:19;;;;;;;12.88;3.20;;;;;;;8.70;98.24;101215.13;5047666;28;20696;-76
2022/11/06 04:15:22;;;;;;;9.68;3.10;;;;;;;8.74;98.50;101208.75;5051061;28;20067;-76
2022/11/06 04:17:47;;;;;;;10.07;3.20;;;;;;;8.75;98.59;101210.44;5050725;28;20064;-76
2022/11/06 04:21:20;;;;;;;12.10;3.45;;;;;;;8.74;98.34;101202.69;5049581;28;20052;-76
2022/11/06 04:23:18;;;;;;;8.50;2.85;;;;;;;8.77;98.57;101192.84;5049383;28;20043;-76
2022/11/06 04:29:24;;;;;;;13.77;3.67;;;;;;;8.78;98.65;101188.44;5031012;28;20084;-76
2022/11/06 04:32:30;;;;;;;9.90;3.40;;;;;;;8.75;98.65;101193.88;5050352;28;20138;-76
2022/11/06 04:34:58;;;;;;;10.00;3.15;;;;;;;8.71;98.66;101187.13;5049517;28;20048;-76
2022/11/06 04:37:35;;;;;;;11.23;3.33;;;;;;;8.69;98.83;101189.00;5049842;28;20364;-76
2022/11/06 04:40:10;;;;;;;8.85;3.08;;;;;;;8.68;99.21;101192.56;5047311;28;20032;-76
2022/11/06 04:43:02;;;;;;;11.77;3.63;;;;;;;8.67;99.55;101189.09;5023882;28;20040;-76
2022/11/06 04:45:35;;;;;;;12.13;3.65;;;;;;;8.62;99.59;101182.44;5028088;28;20036;-76
2022/11/06 04:48:02;;;;;;;11.13;3.47;;;;;;;8.60;100.00;101176.44;5029380;28;20033;-76
2022/11/06 04:50:32;;;;;;;8.80;3.60;;;;;;;8.57;100.00;101177.47;5040676;28;20082;-76
2022/11/06 04:52:59;;;;;;;12.23;3.90;;;;;;;8.55;100.00;101179.34;5049400;28;20246;-76
2022/11/06 04:55:24;;;;;;;11.77;3.67;;;;;;;8.55;100.00;101178.50;5047637;28;20032;-76
2022/11/06 04:57:50;;;;;;;9.55;3.25;;;;;;;8.54;100.00;101177.66;5026086;28;20470;-76
2022/11/06 05:00:16;;;;;;;9.80;3.45;;;;;;;8.54;100.00;101169.78;5037845;28;20580;-76
2022/11/06 05:02:41;;;;;;;10.57;3.50;;;;;;;8.54;100.00;101164.56;5049408;28;20036;-76
2022/11/06 05:05:07;;;;;;;9.77;3.30;;;;;;;8.54;100.00;101161.09;5048519;28;20024;-76
2022/11/06 05:07:33;;;;;;;13.38;3.70;;;;;;;8.54;100.00;101169.78;5049685;28;20521;-76
2022/11/06 05:09:58;;;;;;;9.45;3.60;;;;;;;8.50;100.00;101160.44;5047122;28;20115;-76
2022/11/06 05:12:24;;;;;;;8.85;3.17;;;;;;;8.49;100.00;101161.38;5035715;28;20025;-76
2022/11/06 05:14:49;;;;;;;12.15;3.30;;;;;;;8.48;100.00;101155.28;5059048;28;20026;-76
2022/11/06 05:17:15;;;;;;;13.35;3.40;;;;;;;8.47;100.00;101158.00;5057877;28;20919;-76
2022/11/06 05:19:40;;;;;;;5.80;3.17;;;;;;;8.50;100.00;101149.09;5033736;28;20076;-76
2022/11/06 05:24:49;;;;;;;9.80;3.50;;;;;;;8.50;100.00;101136.81;5028550;28;20107;-76
2022/11/06 05:27:14;;;;;;;8.88;3.25;;;;;;;8.50;100.00;101144.69;5043431;28;20235;-76
2022/11/06 05:29:39;;;;;;;10.50;3.05;;;;;;;8.51;100.00;101151.63;5047221;28;20017;-76
2022/11/06 05:32:05;;;;;;;10.40;3.75;;;;;;;8.50;100.00;101141.22;5048473;28;20021;-76
2022/11/06 05:34:30;;;;;;;6.80;3.00;;;;;;;8.48;100.00;101146.56;5028658;28;20029;-76
2022/11/06 05:36:58;;;;;;;11.32;3.38;;;;;;;8.49;100.00;101148.25;5029558;28;20021;-78
2022/11/06 05:39:24;;;;;;;7.93;2.95;;;;;;;8.49;100.00;101140.38;5031021;28;20056;-76
2022/11/06 05:41:49;;;;;;;7.57;3.20;;;;;;;8.48;100.00;101136.09;5048629;28;20063;-76
2022/11/06 05:44:14;;;;;;;9.57;2.90;;;;;;;8.47;100.00;101132.63;5049640;28;20286;-76
2022/11/06 05:46:40;;;;;;;8.85;3.03;;;;;;;8.50;100.00;101135.97;5048712;28;20370;-76
2022/11/06 05:49:05;;;;;;;11.43;3.25;;;;;;;8.50;100.00;101141.22;5034902;28;20033;-76
2022/11/06 05:51:31;;;;;;;13.02;3.88;;;;;;;8.50;100.00;101130.75;5048080;28;20481;-76
2022/11/06 05:53:56;;;;;;;9.20;3.10;;;;;;;8.48;100.00;101133.47;5047585;28;20479;-76
2022/11/06 05:56:21;;;;;;;8.60;3.70;;;;;;;8.49;100.00;101132.53;5032873;28;20078;-76
2022/11/06 05:58:47;;;;;;;11.18;2.95;;;;;;;8.49;100.00;101127.28;5047561;28;20366;-76
2022/11/06 06:01:12;;;;;;;10.07;3.40;;;;;;;8.47;100.00;101121.28;5047759;28;20021;-75
2022/11/06 06:03:40;;;;;;;8.05;3.13;;;;;;;8.48;100.00;101118.56;5048910;28;20461;-75
2022/11/06 06:06:05;;;;;;;9.40;3.40;;;;;;;8.47;100.00;101121.28;5045649;28;20036;-75
2022/11/06 06:08:31;;;;;;;11.77;3.47;;;;;;;8.48;100.00;101123.81;5052271;28;20551;-75
2022/11/06 06:10:56;;;;;;;9.55;3.22;;;;;;;8.46;100.00;101127.47;5028033;28;20033;-75
2022/11/06 06:13:22;;;;;;;6.80;2.75;;;;;;;8.47;100.00;101121.28;5029067;28;20025;-75
2022/11/06 06:15:47;;;;;;;8.30;2.63;;;;;;;8.48;100.00;101115.94;5028117;28;20029;-75
2022/11/06 06:18:12;;;;;;;10.30;3.03;;;;;;;8.50;100.00;101113.22;5041228;28;20021;-76
2022/11/06 06:20:40;;;;;;;10.60;2.80;;;;;;;8.48;100.00;101102.84;5041422;28;20022;-76
2022/11/06 06:23:06;;;;;;;11.55;3.40;;;;;;;8.46;100.00;101112.56;5024928;28;20029;-76
2022/11/06 06:25:31;;;;;;;9.60;3.05;;;;;;;8.45;100.00;101105.66;5028726;28;20058;-76
2022/11/06 06:27:57;;;;;;;9.10;3.00;;;;;;;8.46;100.00;101112.56;5041402;28;20050;-76
2022/11/06 06:30:23;;;;;;;8.40;2.70;;;;;;;8.44;100.00;101110.97;5048954;28;20033;-76
2022/11/06 06:32:50;;;;;;;6.78;2.65;;;;;;;8.44;100.00;101124.94;5049210;28;20428;-76
2022/11/06 06:35:16;;;;;;;10.70;3.20;;;;;;;8.43;100.00;101119.78;5048614;28;20431;-77
2022/11/06 06:37:42;;;;;;;8.38;3.28;;;;;;;8.44;100.00;101122.31;5047823;28;20079;-76
2022/11/06 06:40:09;;;;;;;10.90;3.10;;;;;;;8.46;100.00;101130.94;5027038;28;20041;-76
2022/11/06 06:42:34;;;;;;;7.57;2.92;;;;;;;8.47;100.00;101127.38;5028714;28;20117;-76
2022/11/06 06:44:59;;;;;;;10.43;3.28;;;;;;;8.48;100.00;101129.06;5028305;28;20485;-76
2022/11/06 06:47:25;;;;;;;7.97;2.60;;;;;;;8.50;100.00;101126.34;5032434;28;20516;-76
2022/11/06 06:49:51;;;;;;;7.78;2.70;;;;;;;8.49;100.00;101122.03;5041011;28;20049;-77
2022/11/06 06:52:16;;;;;;;9.38;2.90;;;;;;;8.53;100.00;101122.69;5028174;28;20022;-76
2022/11/06 06:54:41;;;;;;;7.40;2.80;;;;;;;8.55;100.00;101112.94;5028499;28;20116;-76
2022/11/06 06:57:07;;;;;;;8.75;3.00;;;;;;;8.57;100.00;101101.41;5025721;28;20064;-76
2022/11/06 06:59:33;;;;;;;11.02;3.00;;;;;;;8.59;100.00;101098.69;5028685;28;20053;-77
2022/11/06 07:01:59;;;;;;;8.45;2.78;;;;;;;8.63;100.00;101095.78;5025055;28;20512;-77
2022/11/06 07:04:24;;;;;;;11.18;2.90;;;;;;;8.68;100.00;101098.13;5039939;28;20037;-76
2022/11/06 07:06:53;;;;;;;11.57;3.00;;;;;;;8.73;100.00;101107.41;5046404;28;20032;-76
2022/11/06 07:09:19;;;;;;;11.52;3.08;;;;;;;8.78;100.00;101110.56;5041197;28;20036;-76
2022/11/06 07:11:44;;;;;;;8.68;2.90;;;;;;;8.85;99.84;101111.06;5030420;28;20022;-76
2022/11/06 07:14:10;;;;;;;9.77;3.05;;;;;;;8.90;99.73;101100.28;5026605;28;20049;-76
2022/11/06 07:16:35;;;;;;;8.05;2.70;;;;;;;8.93;99.86;101093.03;5033196;28;20021;-76
2022/11/06 07:19:00;;;;;;;10.15;2.60;;;;;;;8.99;99.45;101086.56;5041109;28;20044;-76
2022/11/06 07:21:25;;;;;;;7.45;2.60;;;;;;;9.03;99.39;101101.16;5032095;28;20017;-75
2022/11/06 07:23:51;;;;;;;6.72;2.50;;;;;;;9.06;98.99;101098.34;5031915;28;20040;-75
2022/11/06 07:26:17;;;;;;;11.20;2.78;;;;;;;9.12;98.42;101090.06;5044218;28;20053;-75
2022/11/06 07:28:42;;;;;;;9.45;2.70;;;;;;;9.18;98.80;101102.81;5050723;28;20033;-76
2022/11/06 07:31:08;;;;;;;8.55;2.58;;;;;;;9.23;98.41;101103.38;5032236;28;20099;-75
2022/11/06 07:33:35;;;;;;;8.45;2.80;;;;;;;9.27;98.39;101096.16;5046012;28;20499;-75
2022/11/06 07:36:05;;;;;;;6.45;2.72;;;;;;;9.34;98.09;101103.53;5039855;28;20394;-75
2022/11/06 07:38:35;;;;;;;6.75;2.28;;;;;;;9.39;97.30;101101.44;5032081;28;20112;-76
2022/11/06 07:41:05;;;;;;;7.88;2.50;;;;;;;9.42;97.15;101093.34;5030957;28;20021;-76
2022/11/06 07:43:31;;;;;;;9.23;2.55;;;;;;;9.45;97.30;101087.06;5031080;28;20029;-76
2022/11/06 07:46:05;;;;;;;8.35;2.45;;;;;;;9.52;97.25;101079.63;5026214;28;20034;-76
2022/11/06 07:48:30;;;;;;;12.30;2.80;;;;;;;9.56;96.64;101070.59;5031452;28;20390;-76
2022/11/06 07:51:01;;;;;;;7.68;2.40;;;;;;;9.61;95.97;101079.03;5030957;28;20090;-77
2022/11/06 07:53:27;;;;;;;8.45;2.50;;;;;;;9.64;96.35;101073.56;5062456;28;20016;-76
2022/11/06 07:55:54;;;;;;;9.23;2.63;;;;;;;9.68;95.82;101075.06;5038646;28;20477;-76
2022/11/06 08:01:41;;;;;;;10.60;2.60;;;;;;;9.78;95.13;101059.50;5049240;23;20104;-96
2022/11/06 08:04:07;;;;;;;8.60;2.70;;;;;;;9.79;94.72;101061.19;5026759;28;20025;-95
2022/11/06 08:06:32;;;;;;;6.03;2.30;;;;;;;9.80;94.98;101065.50;5016085;28;20028;-91
2022/11/06 08:09:03;;;;;;;6.55;2.20;;;;;;;9.83;95.18;101068.75;5011372;28;20324;-93
2022/11/06 08:11:29;;;;;;;7.75;2.40;;;;;;;9.86;94.81;101073.81;5014012;28;20026;-91
2022/11/06 08:13:54;;;;;;;7.28;2.30;;;;;;;9.89;94.98;101078.84;5024751;28;20029;-92
2022/11/06 08:16:20;;;;;;;8.32;2.45;;;;;;;9.94;94.64;101060.16;5037156;28;20037;-93
2022/11/06 08:18:45;;;;;;;6.55;2.33;;;;;;;10.01;94.05;101072.78;5018017;28;20049;-93
2022/11/06 08:21:10;;;;;;;7.25;2.35;;;;;;;10.04;94.01;101066.47;4994277;28;20022;-91
2022/11/06 08:23:36;;;;;;;7.93;2.20;;;;;;;10.09;93.57;101058.28;5007364;28;20108;-92
2022/11/06 08:26:06;;;;;;;8.38;2.40;;;;;;;10.12;93.56;101058.06;5015019;28;20037;-91
2022/11/06 08:28:34;;;;;;;8.50;2.47;;;;;;;10.16;93.24;101049.03;5027961;28;20025;-95
2022/11/06 08:31:05;;;;;;;6.57;2.15;;;;;;;10.24;92.32;101054.63;5019061;28;20022;-91
2022/11/06 08:33:31;;;;;;;5.43;2.15;;;;;;;10.27;92.54;101041.25;5014272;28;20091;-96
2022/11/06 08:36:01;;;;;;;5.88;1.95;;;;;;;10.37;91.95;101042.28;5014577;28;20490;-96
2022/11/06 08:38:29;;;;;;;9.63;2.28;;;;;;;10.44;91.53;101040.09;5014604;28;20057;-96
2022/11/06 08:40:57;;;;;;;7.32;2.05;;;;;;;10.49;91.30;101038.81;5030824;28;20022;-96
2022/11/06 08:43:26;;;;;;;8.05;2.10;;;;;;;10.55;91.30;101038.38;5004940;28;20062;-95
2022/11/06 08:45:51;;;;;;;9.73;2.45;;;;;;;10.60;91.36;101033.63;5005419;28;20022;-94
2022/11/06 08:48:18;;;;;;;6.97;2.08;;;;;;;10.57;90.24;101031.22;4998407;28;20014;-95
2022/11/06 08:50:43;;;;;;;5.15;2.20;;;;;;;10.59;89.79;101021.44;5014297;28;20026;-95
2022/11/06 08:53:19;;;;;;;7.97;2.15;;;;;;;10.64;90.07;101029.81;5009916;28;20474;-96
2022/11/06 08:55:47;;;;;;;5.50;2.08;;;;;;;10.62;89.85;101021.19;5028194;28;20026;-95
2022/11/06 08:58:13;;;;;;;6.10;2.13;;;;;;;10.72;89.18;101012.66;5014510;28;20046;-96
2022/11/06 09:00:44;;;;;;;6.20;2.05;;;;;;;10.81;88.82;101014.63;5016221;28;20093;-96
2022/11/06 09:03:13;;;;;;;5.60;2.05;;;;;;;10.80;88.28;101008.50;5012841;28;20076;-96
2022/11/06 09:05:42;;;;;;;6.22;2.05;;;;;;;10.89;88.52;101009.66;5004759;28;20072;-96
2022/11/06 09:08:09;;;;;;;6.53;2.03;;;;;;;10.88;88.26;101006.19;5014495;28;20030;-95
2022/11/06 09:10:36;;;;;;;8.18;2.45;;;;;;;10.89;87.77;100996.50;4999277;28;20026;-95
2022/11/06 09:13:05;;;;;;;5.15;1.83;;;;;;;10.88;87.59;100995.66;5013100;28;20072;-96
2022/11/06 09:15:31;;;;;;;8.45;2.15;;;;;;;10.90;87.05;100988.47;5016511;28;20018;-94
2022/11/06 09:18:01;;;;;;;7.63;2.20;;;;;;;10.94;86.96;100989.09;5014926;28;20092;-96
2022/11/06 09:20:36;;;;;;;6.32;1.92;;;;;;;10.99;87.72;100981.69;5023360;28;20036;-96
2022/11/06 09:23:10;;;;;;;6.63;1.90;;;;;;;11.00;87.03;100983.38;5023125;28;20072;-94
2022/11/06 09:25:35;;;;;;;4.72;1.83;;;;;;;11.03;87.26;100967.34;5021495;28;20049;-96
2022/11/06 09:28:01;;;;;;;6.20;1.85;;;;;;;11.19;85.80;100965.25;5017184;28;20056;-94
2022/11/06 09:30:29;;;;;;;6.45;1.92;;;;;;;11.27;85.84;100976.06;5019500;28;20121;-93
2022/11/06 09:33:00;;;;;;;6.45;1.88;;;;;;;11.33;85.33;100958.13;5018410;28;20398;-93
2022/11/06 09:35:28;;;;;;;5.15;1.70;;;;;;;11.36;85.48;100971.91;5021387;28;20024;-93
2022/11/06 09:37:54;;;;;;;10.52;2.33;;;;;;;11.28;84.40;100961.94;5018167;28;20029;-93
2022/11/06 09:40:41;;;;;;;7.18;1.80;;;;;;;11.33;84.56;100966.03;5022098;28;20026;-95
2022/11/06 09:43:34;;;;;;;5.38;2.00;;;;;;;11.35;84.70;100967.59;5014150;28;20029;-93
2022/11/06 09:46:25;;;;;;;9.50;2.10;;;;;;;11.42;85.24;100962.69;5012552;28;20034;-96
2022/11/06 09:49:12;;;;;;;5.82;1.70;;;;;;;11.47;83.41;100965.81;5026062;28;20410;-96
2022/11/06 09:52:15;;;;;;;7.35;2.03;;;;;;;11.58;83.83;100964.03;5021929;28;20034;-94
2022/11/06 09:54:51;;;;;;;5.70;2.10;;;;;;;11.55;83.18;100959.00;5025843;28;20484;-92
2022/11/06 09:57:21;;;;;;;6.45;1.80;;;;;;;11.53;82.51;100955.66;5026829;28;20022;-94
2022/11/06 09:59:49;;;;;;;7.72;1.88;;;;;;;11.57;83.23;100961.50;5022343;28;20026;-96
2022/11/06 10:02:30;;;;;;;4.38;1.90;;;;;;;11.59;83.56;100941.16;5013030;28;20109;-94
2022/11/06 10:05:03;;;;;;;5.30;1.70;;;;;;;11.63;82.53;100949.69;5014623;28;20036;-96
2022/11/06 10:07:38;;;;;;;6.38;1.70;;;;;;;11.67;82.29;100941.44;5015654;28;20034;-96
2022/11/06 10:10:12;;;;;;;6.05;1.80;;;;;;;11.76;83.02;100935.44;5014227;28;20022;-96
2022/11/06 10:13:08;;;;;;;3.97;1.60;;;;;;;11.83;82.04;100941.09;5014696;28;20483;-95
2022/11/06 10:15:41;;;;;;;6.13;1.80;;;;;;;11.86;81.78;100941.72;4994694;28;20026;-94
2022/11/06 10:18:30;;;;;;;5.10;1.73;;;;;;;11.85;81.60;100933.91;4997391;28;20038;-95
2022/11/06 10:21:16;;;;;;;7.82;1.95;;;;;;;11.78;81.16;100933.56;5012140;28;20494;-94
2022/11/06 10:23:52;;;;;;;6.03;1.88;;;;;;;11.65;81.24;100932.81;5029972;28;20402;-95
2022/11/06 10:26:24;;;;;;;8.70;2.40;;;;;;;11.57;81.47;100941.28;5013989;28;20132;-94
2022/11/06 10:29:10;;;;;;;7.50;2.33;;;;;;;11.51;81.27;100928.56;5014235;28;20042;-95
2022/11/06 10:32:00;;;;;;;7.43;1.90;;;;;;;11.52;81.35;100926.78;5013988;28;20080;-95
2022/11/06 10:34:48;;;;;;;7.80;1.80;;;;;;;11.58;82.38;100932.41;5017572;28;20084;-95
2022/11/06 10:37:20;;;;;;;7.22;1.85;;;;;;;11.56;81.09;100912.41;5023956;28;20046;-94
2022/11/06 10:39:46;;;;;;;6.05;1.95;;;;;;;11.59;80.84;100912.16;5028103;28;20028;-94
2022/11/06 10:42:19;;;;;;;6.57;2.00;;;;;;;11.65;80.86;100914.34;5023964;28;20014;-95
2022/11/06 10:45:04;;;;;;;6.65;2.17;;;;;;;11.72;80.72;100905.00;5020319;28;20029;-95
2022/11/06 10:47:44;;;;;;;7.13;2.25;;;;;;;11.77;79.97;100892.31;5023007;28;20017;-96
2022/11/06 10:50:15;;;;;;;6.65;1.77;;;;;;;11.89;80.17;100887.91;5019903;28;20041;-95
2022/11/06 10:53:21;;;;;;;7.22;2.03;;;;;;;11.91;79.97;100878.06;5024597;28;20044;-96
2022/11/06 10:56:09;;;;;;;8.20;2.28;;;;;;;11.99;79.39;100872.19;5024266;28;20026;-96
2022/11/06 10:58:35;;;;;;;7.55;2.30;;;;;;;12.07;78.42;100864.53;5027290;28;20029;-96
2022/11/06 11:01:03;;;;;;;9.27;1.90;;;;;;;12.14;77.95;100861.25;5025743;28;20050;-96
2022/11/06 11:03:43;;;;;;;5.30;1.60;;;;;;;12.15;78.18;100851.56;5026415;28;20073;-96
2022/11/06 11:06:09;;;;;;;8.02;1.80;;;;;;;12.09;77.77;100846.78;5028774;28;20053;-94
2022/11/06 11:08:41;;;;;;;7.13;1.85;;;;;;;12.15;77.93;100847.13;5022426;28;20237;-96
2022/11/06 11:11:12;;;;;;;7.15;2.00;;;;;;;12.20;78.24;100852.00;5027562;23;20086;-83
2022/11/06 11:13:45;;;;;;;9.82;1.95;;;;;;;12.21;77.51;100843.13;4988994;28;20451;-74
2022/11/06 11:16:17;;;;;;;;;;;;;;;12.31;79.16;100851.97;4973895;28;20105;-75
2022/11/06 11:18:43;;;;;;;6.75;2.10;;;;;;;12.19;77.38;100853.81;5003900;28;19910;-74
2022/11/06 11:21:17;;;;;;;10.07;1.90;;;;;;;12.19;77.81;100845.06;4988114;28;20019;-74
2022/11/06 11:24:05;;;;;;;6.95;2.10;;;;;;;12.22;77.98;100842.19;4998671;28;20482;-74
2022/11/06 11:26:36;;;;;;;7.50;2.20;;;;;;;12.14;76.85;100834.03;5006320;28;20050;-75
2022/11/06 11:29:12;;;;;;;7.78;2.13;;;;;;;12.17;77.58;100831.16;5007788;28;20058;-74
2022/11/06 11:31:44;;;;;;;7.22;2.22;;;;;;;12.20;77.10;100825.63;4999921;28;20033;-74
2022/11/06 11:34:20;;;;;;;8.25;1.90;;;;;;;12.21;75.71;100824.66;5000184;28;20051;-74
2022/11/06 11:36:46;;;;;;;7.40;2.00;;;;;;;12.18;75.28;100822.28;4992558;28;20030;-74
2022/11/06 11:39:13;;;;;;;5.88;1.65;;;;;;;12.09;74.33;100815.13;4991747;28;20038;-74
2022/11/06 11:41:41;;;;;;;5.78;1.58;;;;;;;12.01;74.60;100817.50;4992747;28;20019;-74
2022/11/06 11:44:14;;;;;;;8.13;1.90;;;;;;;11.99;74.97;100809.72;4997127;28;20065;-74
2022/11/06 11:46:53;;;;;;;4.82;1.70;;;;;;;11.97;76.05;100816.09;4990897;28;20038;-74
2022/11/06 11:49:28;;;;;;;7.40;1.75;;;;;;;11.95;75.42;100812.75;4990627;28;20033;-74
2022/11/06 11:51:54;;;;;;;8.38;2.15;;;;;;;11.95;75.16;100807.47;4992054;28;20022;-75
2022/11/06 11:54:25;;;;;;;9.57;2.28;;;;;;;11.95;74.05;100812.75;4990866;28;20048;-74
2022/11/06 11:56:54;;;;;;;5.60;1.70;;;;;;;11.98;74.50;100801.94;5006791;28;20026;-75
2022/11/06 11:59:25;;;;;;;6.50;1.73;;;;;;;11.96;74.44;100799.44;4991593;28;20034;-74
2022/11/06 12:01:52;;;;;;;6.72;1.70;;;;;;;11.97;73.99;100797.63;4997991;28;20010;-74